BAW492 EGLL-LXGB
Flight info
| Callsign | BAW492 |
|---|---|
| Flight time | 2h 26m |
| Altitude | 35000 |
| Route | GASGU N866 SAM M195 MARUK N621 LELNA DCT ERCOZ DCT NOVAN DCT DELOG DCT CRISA DCT VULPE DCT MAR N864 PIMOS |
| Aircraft | A320/M-SDE3FGHIRWY/LB1 |
Departure
| Time | 2026-05-05 14:15 |
|---|---|
| Airport | London Heathrow Airport (EGLL) |
Arrival
| Time | 2026-05-05 16:42 |
|---|---|
| Airport | Gibraltar Airport (LXGB) |
| Time | Latitude | Longitude | Altitude | Speed | Heading |
|---|---|---|---|---|---|
| 2026-05-05 13:33 | 51.47215 | -0.46246 | 90 ft | 0 kts | 56° |
| 2026-05-05 14:02 | 51.47215 | -0.46247 | 86 ft | 1 kts | 56° |
| 2026-05-05 14:03 | 51.47206 | -0.46267 | 91 ft | 3 kts | 56° |
| 2026-05-05 14:03 | 51.47195 | -0.46294 | 90 ft | 3 kts | 56° |
| 2026-05-05 14:03 | 51.47184 | -0.46321 | 89 ft | 3 kts | 56° |
| 2026-05-05 14:03 | 51.47175 | -0.46342 | 89 ft | 3 kts | 15° |
| 2026-05-05 14:04 | 51.47162 | -0.46339 | 89 ft | 2 kts | 326° |
| 2026-05-05 14:04 | 51.47152 | -0.46329 | 88 ft | 3 kts | 326° |
| 2026-05-05 14:04 | 51.47140 | -0.46315 | 89 ft | 1 kts | 326° |
| 2026-05-05 14:06 | 51.47149 | -0.46325 | 86 ft | 4 kts | 326° |
| 2026-05-05 14:06 | 51.47177 | -0.46356 | 89 ft | 6 kts | 326° |
| 2026-05-05 14:06 | 51.47219 | -0.46402 | 88 ft | 8 kts | 326° |
| 2026-05-05 14:07 | 51.47242 | -0.46493 | 86 ft | 10 kts | 275° |
| 2026-05-05 14:07 | 51.47241 | -0.46613 | 86 ft | 11 kts | 269° |
| 2026-05-05 14:07 | 51.47240 | -0.46747 | 86 ft | 13 kts | 269° |
| 2026-05-05 14:07 | 51.47218 | -0.46876 | 88 ft | 11 kts | 195° |
| 2026-05-05 14:08 | 51.47125 | -0.46867 | 86 ft | 18 kts | 180° |
| 2026-05-05 14:08 | 51.46982 | -0.46867 | 86 ft | 22 kts | 180° |
| 2026-05-05 14:08 | 51.46857 | -0.46864 | 86 ft | 15 kts | 179° |
| 2026-05-05 14:08 | 51.46749 | -0.46861 | 86 ft | 16 kts | 179° |
| 2026-05-05 14:09 | 51.46656 | -0.46934 | 87 ft | 20 kts | 268° |
| 2026-05-05 14:09 | 51.46660 | -0.47159 | 89 ft | 21 kts | 271° |
| 2026-05-05 14:09 | 51.46656 | -0.47395 | 86 ft | 22 kts | 266° |
| 2026-05-05 14:09 | 51.46656 | -0.47647 | 86 ft | 23 kts | 270° |
| 2026-05-05 14:10 | 51.46654 | -0.47915 | 86 ft | 24 kts | 269° |
| 2026-05-05 14:10 | 51.46652 | -0.48177 | 86 ft | 18 kts | 262° |
| 2026-05-05 14:10 | 51.46606 | -0.48216 | 88 ft | 8 kts | 186° |
| 2026-05-05 14:10 | 51.46552 | -0.48211 | 87 ft | 8 kts | 181° |
| 2026-05-05 14:11 | 51.46501 | -0.48206 | 91 ft | 7 kts | 162° |
| 2026-05-05 14:11 | 51.46478 | -0.48107 | 87 ft | 1 kts | 89° |
| 2026-05-05 14:12 | 51.46478 | -0.48071 | 87 ft | 21 kts | 89° |
| 2026-05-05 14:12 | 51.46482 | -0.47453 | 86 ft | 88 kts | 90° |
| 2026-05-05 14:13 | 51.46484 | -0.46186 | 91 ft | 137 kts | 91° |
| 2026-05-05 14:13 | 51.46482 | -0.45116 | 92 ft | 162 kts | 89° |
| 2026-05-05 14:13 | 51.46465 | -0.44380 | 219 ft | 165 kts | 88° |
| 2026-05-05 14:14 | 51.46462 | -0.43879 | 374 ft | 164 kts | 87° |
| 2026-05-05 14:15 | 51.46475 | -0.42578 | 829 ft | 158 kts | 86° |
| 2026-05-05 14:15 | 51.46286 | -0.40849 | 1366 ft | 168 kts | 116° |
| 2026-05-05 14:15 | 51.45321 | -0.39603 | 1560 ft | 196 kts | 161° |
| 2026-05-05 14:16 | 51.43926 | -0.39862 | 1875 ft | 212 kts | 201° |
| 2026-05-05 14:16 | 51.42518 | -0.40779 | 2186 ft | 229 kts | 201° |
| 2026-05-05 14:16 | 51.40954 | -0.41761 | 2452 ft | 251 kts | 200° |
| 2026-05-05 14:16 | 51.39273 | -0.42761 | 2994 ft | 265 kts | 200° |
| 2026-05-05 14:17 | 51.37522 | -0.43791 | 3746 ft | 271 kts | 200° |
| 2026-05-05 14:17 | 51.35736 | -0.44838 | 4528 ft | 275 kts | 199° |
| 2026-05-05 14:17 | 51.33930 | -0.45899 | 5313 ft | 279 kts | 200° |
| 2026-05-05 14:17 | 51.32112 | -0.47080 | 5811 ft | 284 kts | 208° |
| 2026-05-05 14:18 | 51.30536 | -0.48963 | 5930 ft | 284 kts | 226° |
| 2026-05-05 14:18 | 51.29397 | -0.51492 | 5945 ft | 280 kts | 245° |
| 2026-05-05 14:18 | 51.28755 | -0.54370 | 5950 ft | 279 kts | 257° |
| 2026-05-05 14:18 | 51.28232 | -0.57366 | 5949 ft | 280 kts | 256° |
| 2026-05-05 14:19 | 51.27677 | -0.60350 | 5952 ft | 280 kts | 255° |
| 2026-05-05 14:19 | 51.27099 | -0.63325 | 5955 ft | 280 kts | 253° |
| 2026-05-05 14:19 | 51.26510 | -0.66300 | 5953 ft | 280 kts | 254° |
| 2026-05-05 14:19 | 51.25922 | -0.69264 | 5953 ft | 278 kts | 253° |
| 2026-05-05 14:20 | 51.25336 | -0.72222 | 5952 ft | 280 kts | 254° |
| 2026-05-05 14:20 | 51.24758 | -0.75155 | 5952 ft | 279 kts | 254° |
| 2026-05-05 14:20 | 51.24176 | -0.78125 | 5955 ft | 281 kts | 253° |
| 2026-05-05 14:20 | 51.23590 | -0.81115 | 5956 ft | 280 kts | 254° |
| 2026-05-05 14:21 | 51.23006 | -0.84080 | 5956 ft | 280 kts | 253° |
| 2026-05-05 14:21 | 51.22424 | -0.87030 | 5955 ft | 279 kts | 253° |
| 2026-05-05 14:21 | 51.21849 | -0.89955 | 5954 ft | 280 kts | 254° |
| 2026-05-05 14:21 | 51.21264 | -0.92935 | 5949 ft | 280 kts | 253° |
| 2026-05-05 14:22 | 51.20471 | -0.95778 | 5948 ft | 283 kts | 239° |
| 2026-05-05 14:22 | 51.19162 | -0.98157 | 6343 ft | 288 kts | 218° |
| 2026-05-05 14:22 | 51.17554 | -1.00062 | 7222 ft | 286 kts | 217° |
| 2026-05-05 14:22 | 51.15957 | -1.01968 | 8044 ft | 288 kts | 217° |
| 2026-05-05 14:23 | 51.14365 | -1.03871 | 8798 ft | 290 kts | 217° |
| 2026-05-05 14:23 | 51.12721 | -1.05831 | 9553 ft | 293 kts | 217° |
| 2026-05-05 14:23 | 51.11079 | -1.07778 | 10220 ft | 298 kts | 217° |
| 2026-05-05 14:23 | 51.09372 | -1.09798 | 10378 ft | 320 kts | 217° |
| 2026-05-05 14:24 | 51.07521 | -1.11979 | 10533 ft | 340 kts | 217° |
| 2026-05-05 14:24 | 51.05602 | -1.14234 | 10979 ft | 348 kts | 217° |
| 2026-05-05 14:24 | 51.03640 | -1.16539 | 11552 ft | 352 kts | 216° |
| 2026-05-05 14:24 | 51.01653 | -1.18870 | 12158 ft | 356 kts | 216° |
| 2026-05-05 14:25 | 50.99637 | -1.21228 | 12750 ft | 360 kts | 216° |
| 2026-05-05 14:25 | 50.97607 | -1.23595 | 13303 ft | 366 kts | 216° |
| 2026-05-05 14:25 | 50.95544 | -1.26003 | 13903 ft | 369 kts | 216° |
| 2026-05-05 14:25 | 50.93468 | -1.28423 | 14490 ft | 370 kts | 216° |
| 2026-05-05 14:26 | 50.91411 | -1.30822 | 15020 ft | 373 kts | 216° |
| 2026-05-05 14:26 | 50.89313 | -1.33268 | 15546 ft | 375 kts | 216° |
| 2026-05-05 14:26 | 50.87195 | -1.35730 | 16124 ft | 376 kts | 216° |
| 2026-05-05 14:26 | 50.85792 | -1.37358 | 16487 ft | 378 kts | 216° |
| 2026-05-05 14:27 | 50.82930 | -1.40679 | 17146 ft | 383 kts | 216° |
| 2026-05-05 14:27 | 50.80804 | -1.43149 | 17742 ft | 384 kts | 216° |
| 2026-05-05 14:27 | 50.78644 | -1.45652 | 18325 ft | 385 kts | 216° |
| 2026-05-05 14:27 | 50.76470 | -1.48166 | 18826 ft | 387 kts | 216° |
| 2026-05-05 14:28 | 50.74282 | -1.50693 | 19344 ft | 389 kts | 216° |
| 2026-05-05 14:28 | 50.72089 | -1.53219 | 19877 ft | 391 kts | 216° |
| 2026-05-05 14:28 | 50.69880 | -1.55761 | 20407 ft | 393 kts | 216° |
| 2026-05-05 14:28 | 50.67695 | -1.58275 | 20923 ft | 394 kts | 216° |
| 2026-05-05 14:29 | 50.65472 | -1.60832 | 21414 ft | 396 kts | 216° |
| 2026-05-05 14:29 | 50.63227 | -1.63411 | 21901 ft | 398 kts | 216° |
| 2026-05-05 14:29 | 50.60968 | -1.66002 | 22244 ft | 403 kts | 216° |
| 2026-05-05 14:29 | 50.58718 | -1.68574 | 22673 ft | 406 kts | 216° |
| 2026-05-05 14:30 | 50.56420 | -1.71193 | 23123 ft | 408 kts | 216° |
| 2026-05-05 14:30 | 50.54118 | -1.73818 | 23570 ft | 409 kts | 216° |
| 2026-05-05 14:30 | 50.51794 | -1.76468 | 23949 ft | 411 kts | 216° |
| 2026-05-05 14:30 | 50.49499 | -1.79086 | 24325 ft | 412 kts | 216° |
| 2026-05-05 14:31 | 50.47177 | -1.81731 | 24718 ft | 412 kts | 216° |
| 2026-05-05 14:31 | 50.44848 | -1.84383 | 25088 ft | 414 kts | 216° |
| 2026-05-05 14:31 | 50.42503 | -1.87052 | 25439 ft | 415 kts | 215° |
| 2026-05-05 14:31 | 50.40157 | -1.89711 | 25808 ft | 416 kts | 215° |
| 2026-05-05 14:32 | 50.37827 | -1.92350 | 26095 ft | 419 kts | 215° |
| 2026-05-05 14:32 | 50.35457 | -1.95032 | 26411 ft | 420 kts | 215° |
| 2026-05-05 14:32 | 50.33079 | -1.97719 | 26746 ft | 422 kts | 215° |
| 2026-05-05 14:32 | 50.30687 | -2.00410 | 27076 ft | 423 kts | 215° |
| 2026-05-05 14:33 | 50.28285 | -2.03095 | 27423 ft | 424 kts | 213° |
| 2026-05-05 14:33 | 50.25750 | -2.05354 | 27742 ft | 425 kts | 207° |
| 2026-05-05 14:33 | 50.23145 | -2.07533 | 28077 ft | 426 kts | 207° |
| 2026-05-05 14:33 | 50.20528 | -2.09752 | 28445 ft | 426 kts | 207° |
| 2026-05-05 14:34 | 50.17930 | -2.11965 | 28920 ft | 424 kts | 207° |
| 2026-05-05 14:34 | 50.15342 | -2.14160 | 29335 ft | 424 kts | 207° |
| 2026-05-05 14:34 | 50.12748 | -2.16347 | 29734 ft | 423 kts | 207° |
| 2026-05-05 14:34 | 50.10180 | -2.18502 | 30148 ft | 422 kts | 207° |
| 2026-05-05 14:35 | 50.07596 | -2.20659 | 30521 ft | 421 kts | 207° |
| 2026-05-05 14:35 | 50.05001 | -2.22819 | 30871 ft | 421 kts | 207° |
| 2026-05-05 14:35 | 50.02418 | -2.24964 | 31214 ft | 421 kts | 207° |
| 2026-05-05 14:35 | 49.99860 | -2.27083 | 31550 ft | 420 kts | 207° |
| 2026-05-05 14:36 | 49.97267 | -2.29227 | 31917 ft | 420 kts | 207° |
| 2026-05-05 14:36 | 49.94690 | -2.31361 | 32295 ft | 419 kts | 207° |
| 2026-05-05 14:36 | 49.92986 | -2.32771 | 32493 ft | 420 kts | 207° |
| 2026-05-05 14:36 | 49.89553 | -2.35613 | 32820 ft | 423 kts | 208° |
| 2026-05-05 14:37 | 49.86945 | -2.37774 | 32957 ft | 424 kts | 207° |
| 2026-05-05 14:37 | 49.84342 | -2.39926 | 32976 ft | 424 kts | 207° |
| 2026-05-05 14:37 | 49.80002 | -2.43497 | 32972 ft | 424 kts | 207° |
| 2026-05-05 14:38 | 49.74784 | -2.47778 | 32971 ft | 425 kts | 207° |
| 2026-05-05 14:38 | 49.69562 | -2.52054 | 32969 ft | 422 kts | 207° |
| 2026-05-05 14:39 | 49.64381 | -2.56301 | 32970 ft | 421 kts | 207° |
| 2026-05-05 14:39 | 49.59243 | -2.60500 | 32972 ft | 420 kts | 207° |
| 2026-05-05 14:40 | 49.54074 | -2.64698 | 32971 ft | 419 kts | 207° |
| 2026-05-05 14:40 | 49.48916 | -2.68882 | 32985 ft | 420 kts | 206° |
| 2026-05-05 14:41 | 49.43718 | -2.73098 | 32970 ft | 423 kts | 207° |
| 2026-05-05 14:41 | 49.38503 | -2.77320 | 32971 ft | 423 kts | 206° |
| 2026-05-05 14:42 | 49.33282 | -2.81534 | 32967 ft | 423 kts | 206° |
| 2026-05-05 14:42 | 49.28061 | -2.85726 | 32964 ft | 423 kts | 207° |
| 2026-05-05 14:43 | 49.22873 | -2.89885 | 32969 ft | 421 kts | 206° |
| 2026-05-05 14:43 | 49.17676 | -2.94049 | 32971 ft | 421 kts | 206° |
| 2026-05-05 14:44 | 49.12476 | -2.98206 | 32963 ft | 421 kts | 206° |
| 2026-05-05 14:44 | 49.07302 | -3.02325 | 32964 ft | 420 kts | 206° |
| 2026-05-05 14:45 | 49.02096 | -3.06452 | 32980 ft | 421 kts | 205° |
| 2026-05-05 14:45 | 48.96873 | -3.10587 | 32976 ft | 423 kts | 205° |
| 2026-05-05 14:46 | 48.91667 | -3.14708 | 32970 ft | 424 kts | 205° |
| 2026-05-05 14:46 | 48.86414 | -3.18857 | 32969 ft | 425 kts | 206° |
| 2026-05-05 14:47 | 48.81194 | -3.22970 | 32968 ft | 424 kts | 205° |
| 2026-05-05 14:47 | 48.75951 | -3.27084 | 32967 ft | 424 kts | 205° |
| 2026-05-05 14:48 | 48.70699 | -3.31193 | 32980 ft | 424 kts | 205° |
| 2026-05-05 14:48 | 48.65452 | -3.35291 | 32968 ft | 424 kts | 205° |
| 2026-05-05 14:49 | 48.60230 | -3.39371 | 32982 ft | 424 kts | 205° |
| 2026-05-05 14:49 | 48.54947 | -3.43477 | 32969 ft | 425 kts | 205° |
| 2026-05-05 14:50 | 48.49707 | -3.47542 | 32978 ft | 427 kts | 205° |
| 2026-05-05 14:50 | 48.44401 | -3.51652 | 32955 ft | 429 kts | 205° |
| 2026-05-05 14:51 | 48.39078 | -3.55766 | 32965 ft | 429 kts | 205° |
| 2026-05-05 14:51 | 48.33666 | -3.59380 | 32958 ft | 427 kts | 194° |
| 2026-05-05 14:52 | 48.27813 | -3.60525 | 32962 ft | 424 kts | 180° |
| 2026-05-05 14:52 | 48.21913 | -3.60805 | 32957 ft | 424 kts | 180° |
| 2026-05-05 14:53 | 48.16038 | -3.61104 | 32966 ft | 424 kts | 180° |
| 2026-05-05 14:53 | 48.10132 | -3.61407 | 32956 ft | 423 kts | 180° |
| 2026-05-05 14:54 | 48.04240 | -3.61700 | 32953 ft | 423 kts | 180° |
| 2026-05-05 14:54 | 47.98373 | -3.61986 | 32949 ft | 423 kts | 180° |
| 2026-05-05 14:55 | 47.92485 | -3.62274 | 32948 ft | 423 kts | 180° |
| 2026-05-05 14:55 | 47.86607 | -3.62557 | 32950 ft | 423 kts | 180° |
| 2026-05-05 14:56 | 47.80726 | -3.62849 | 32947 ft | 423 kts | 180° |
| 2026-05-05 14:56 | 47.74867 | -3.63133 | 32947 ft | 423 kts | 180° |
| 2026-05-05 14:57 | 47.69011 | -3.63414 | 32945 ft | 423 kts | 179° |
| 2026-05-05 14:57 | 47.63116 | -3.63708 | 32946 ft | 423 kts | 179° |
| 2026-05-05 14:58 | 47.57231 | -3.64009 | 32946 ft | 423 kts | 179° |
| 2026-05-05 14:58 | 47.51333 | -3.64301 | 32946 ft | 424 kts | 179° |
| 2026-05-05 14:59 | 47.45452 | -3.64572 | 32941 ft | 425 kts | 179° |
| 2026-05-05 14:59 | 47.39538 | -3.64851 | 32942 ft | 425 kts | 179° |
| 2026-05-05 15:00 | 47.34619 | -3.65094 | 32945 ft | 425 kts | 179° |
| 2026-05-05 15:00 | 47.27672 | -3.65424 | 32949 ft | 428 kts | 179° |
| 2026-05-05 15:01 | 47.21756 | -3.65704 | 32944 ft | 428 kts | 179° |
| 2026-05-05 15:01 | 47.15793 | -3.65995 | 32945 ft | 429 kts | 179° |
| 2026-05-05 15:02 | 47.09824 | -3.66281 | 32948 ft | 429 kts | 179° |
| 2026-05-05 15:02 | 47.03823 | -3.66555 | 32947 ft | 430 kts | 179° |
| 2026-05-05 15:03 | 46.97867 | -3.66839 | 32945 ft | 431 kts | 179° |
| 2026-05-05 15:03 | 46.91875 | -3.67123 | 32945 ft | 431 kts | 179° |
| 2026-05-05 15:04 | 46.85860 | -3.67407 | 32948 ft | 433 kts | 179° |
| 2026-05-05 15:04 | 46.79824 | -3.67693 | 32948 ft | 434 kts | 179° |
| 2026-05-05 15:05 | 46.70738 | -3.68121 | 32945 ft | 434 kts | 179° |
| 2026-05-05 15:06 | 46.64692 | -3.68404 | 32948 ft | 435 kts | 179° |
| 2026-05-05 15:06 | 46.58684 | -3.68686 | 32948 ft | 435 kts | 179° |
| 2026-05-05 15:07 | 46.52614 | -3.68957 | 32945 ft | 435 kts | 179° |
| 2026-05-05 15:07 | 46.46558 | -3.69250 | 32946 ft | 435 kts | 179° |
| 2026-05-05 15:08 | 46.40536 | -3.69540 | 32951 ft | 435 kts | 179° |
| 2026-05-05 15:08 | 46.34469 | -3.69815 | 32953 ft | 435 kts | 179° |
| 2026-05-05 15:09 | 46.28403 | -3.70283 | 32953 ft | 437 kts | 183° |
| 2026-05-05 15:09 | 46.22351 | -3.71239 | 32953 ft | 438 kts | 185° |
| 2026-05-05 15:10 | 46.16327 | -3.72281 | 32954 ft | 438 kts | 185° |
| 2026-05-05 15:10 | 46.10274 | -3.73233 | 32961 ft | 438 kts | 184° |
| 2026-05-05 15:11 | 46.04206 | -3.74116 | 32956 ft | 438 kts | 184° |
| 2026-05-05 15:11 | 45.98123 | -3.74992 | 32956 ft | 439 kts | 184° |
| 2026-05-05 15:12 | 45.92032 | -3.75881 | 32957 ft | 439 kts | 184° |
| 2026-05-05 15:12 | 45.85980 | -3.76782 | 33176 ft | 440 kts | 185° |
| 2026-05-05 15:12 | 45.82944 | -3.77230 | 33549 ft | 439 kts | 185° |
| 2026-05-05 15:13 | 45.79904 | -3.77675 | 33943 ft | 438 kts | 185° |
| 2026-05-05 15:13 | 45.76874 | -3.78120 | 34232 ft | 437 kts | 185° |
| 2026-05-05 15:13 | 45.73849 | -3.78564 | 34493 ft | 437 kts | 185° |
| 2026-05-05 15:13 | 45.70817 | -3.79011 | 34738 ft | 437 kts | 186° |
| 2026-05-05 15:14 | 45.67788 | -3.79454 | 34918 ft | 438 kts | 186° |
| 2026-05-05 15:14 | 45.61645 | -3.80350 | 34964 ft | 448 kts | 186° |
| 2026-05-05 15:15 | 45.55437 | -3.81260 | 34963 ft | 451 kts | 186° |
| 2026-05-05 15:15 | 45.49167 | -3.82182 | 34967 ft | 453 kts | 186° |
| 2026-05-05 15:16 | 45.42883 | -3.83085 | 34964 ft | 454 kts | 186° |
| 2026-05-05 15:16 | 45.36621 | -3.83989 | 34968 ft | 454 kts | 186° |
| 2026-05-05 15:17 | 45.30319 | -3.84906 | 34973 ft | 454 kts | 187° |
| 2026-05-05 15:17 | 45.24026 | -3.85819 | 34982 ft | 454 kts | 186° |
| 2026-05-05 15:18 | 45.17724 | -3.86725 | 34970 ft | 455 kts | 187° |
| 2026-05-05 15:18 | 45.11417 | -3.87624 | 34967 ft | 455 kts | 186° |
| 2026-05-05 15:19 | 45.05144 | -3.88519 | 34966 ft | 456 kts | 187° |
| 2026-05-05 15:19 | 44.98823 | -3.89434 | 34978 ft | 456 kts | 187° |
| 2026-05-05 15:20 | 44.92504 | -3.90344 | 34984 ft | 456 kts | 188° |
| 2026-05-05 15:20 | 44.86185 | -3.91240 | 34990 ft | 456 kts | 188° |
| 2026-05-05 15:21 | 44.80942 | -3.91991 | 34987 ft | 456 kts | 187° |
| 2026-05-05 15:21 | 44.73609 | -3.93033 | 34990 ft | 455 kts | 187° |
| 2026-05-05 15:22 | 44.67265 | -3.93927 | 34992 ft | 455 kts | 187° |
| 2026-05-05 15:22 | 44.60993 | -3.94805 | 34992 ft | 455 kts | 187° |
| 2026-05-05 15:23 | 44.55743 | -3.95537 | 34991 ft | 455 kts | 187° |
| 2026-05-05 15:23 | 44.49424 | -3.96426 | 34991 ft | 455 kts | 187° |
| 2026-05-05 15:24 | 44.43156 | -3.97310 | 35004 ft | 455 kts | 187° |
| 2026-05-05 15:24 | 44.36848 | -3.98203 | 35005 ft | 455 kts | 187° |
| 2026-05-05 15:25 | 44.30542 | -3.99066 | 35003 ft | 455 kts | 186° |
| 2026-05-05 15:25 | 44.24219 | -3.99800 | 35005 ft | 455 kts | 186° |
| 2026-05-05 15:26 | 44.17900 | -4.00480 | 34998 ft | 455 kts | 186° |
| 2026-05-05 15:26 | 44.11628 | -4.01174 | 34998 ft | 455 kts | 186° |
| 2026-05-05 15:27 | 44.05325 | -4.01895 | 35011 ft | 454 kts | 187° |
| 2026-05-05 15:27 | 43.99024 | -4.02620 | 35011 ft | 453 kts | 187° |
| 2026-05-05 15:28 | 43.92758 | -4.03333 | 34998 ft | 453 kts | 187° |
| 2026-05-05 15:28 | 43.86457 | -4.04045 | 35007 ft | 454 kts | 187° |
| 2026-05-05 15:29 | 43.80154 | -4.04768 | 35021 ft | 454 kts | 187° |
| 2026-05-05 15:29 | 43.73845 | -4.05483 | 35018 ft | 454 kts | 187° |
| 2026-05-05 15:30 | 43.67586 | -4.06176 | 35027 ft | 453 kts | 187° |
| 2026-05-05 15:30 | 43.61298 | -4.06876 | 35027 ft | 453 kts | 187° |
| 2026-05-05 15:31 | 43.54992 | -4.07587 | 35025 ft | 453 kts | 188° |
| 2026-05-05 15:31 | 43.48738 | -4.08291 | 35035 ft | 453 kts | 187° |
| 2026-05-05 15:32 | 43.42441 | -4.08991 | 35038 ft | 453 kts | 187° |
| 2026-05-05 15:32 | 43.36137 | -4.09692 | 35039 ft | 453 kts | 187° |
| 2026-05-05 15:33 | 43.29852 | -4.10395 | 35033 ft | 453 kts | 188° |
| 2026-05-05 15:33 | 43.23604 | -4.11093 | 35035 ft | 453 kts | 188° |
| 2026-05-05 15:34 | 43.17313 | -4.11788 | 35036 ft | 453 kts | 188° |
| 2026-05-05 15:34 | 43.11019 | -4.12483 | 35019 ft | 453 kts | 188° |
| 2026-05-05 15:35 | 43.04733 | -4.13172 | 35021 ft | 453 kts | 188° |
| 2026-05-05 15:35 | 42.98477 | -4.13851 | 35021 ft | 453 kts | 188° |
| 2026-05-05 15:36 | 42.92160 | -4.14552 | 35020 ft | 453 kts | 188° |
| 2026-05-05 15:36 | 42.85899 | -4.15242 | 35028 ft | 453 kts | 188° |
| 2026-05-05 15:37 | 42.79594 | -4.15935 | 35031 ft | 453 kts | 188° |
| 2026-05-05 15:37 | 42.73346 | -4.16614 | 35027 ft | 453 kts | 188° |
| 2026-05-05 15:38 | 42.67037 | -4.17298 | 35025 ft | 453 kts | 188° |
| 2026-05-05 15:38 | 42.60757 | -4.17981 | 35018 ft | 453 kts | 188° |
| 2026-05-05 15:39 | 42.54508 | -4.18663 | 35016 ft | 452 kts | 188° |
| 2026-05-05 15:39 | 42.48224 | -4.19341 | 34997 ft | 452 kts | 189° |
| 2026-05-05 15:40 | 42.41947 | -4.20013 | 35006 ft | 452 kts | 189° |
| 2026-05-05 15:40 | 42.35648 | -4.20695 | 35010 ft | 453 kts | 189° |
| 2026-05-05 15:41 | 42.29397 | -4.21375 | 35006 ft | 453 kts | 189° |
| 2026-05-05 15:41 | 42.23097 | -4.22058 | 35013 ft | 453 kts | 189° |
| 2026-05-05 15:42 | 42.16798 | -4.22727 | 35016 ft | 453 kts | 189° |
| 2026-05-05 15:42 | 42.10540 | -4.23379 | 34996 ft | 453 kts | 189° |
| 2026-05-05 15:43 | 42.04240 | -4.24046 | 35014 ft | 452 kts | 189° |
| 2026-05-05 15:43 | 41.97973 | -4.24722 | 35019 ft | 452 kts | 189° |
| 2026-05-05 15:44 | 41.91732 | -4.25388 | 35017 ft | 452 kts | 189° |
| 2026-05-05 15:44 | 41.85450 | -4.26048 | 35009 ft | 451 kts | 189° |
| 2026-05-05 15:45 | 41.79178 | -4.26715 | 35015 ft | 451 kts | 189° |
| 2026-05-05 15:45 | 41.72951 | -4.27370 | 35017 ft | 451 kts | 189° |
| 2026-05-05 15:46 | 41.66687 | -4.28028 | 34998 ft | 450 kts | 190° |
| 2026-05-05 15:46 | 41.60487 | -4.28698 | 35014 ft | 449 kts | 190° |
| 2026-05-05 15:47 | 41.54248 | -4.29361 | 35012 ft | 449 kts | 190° |
| 2026-05-05 15:47 | 41.48004 | -4.30011 | 34985 ft | 449 kts | 190° |
| 2026-05-05 15:48 | 41.41785 | -4.30658 | 35004 ft | 448 kts | 190° |
| 2026-05-05 15:48 | 41.35613 | -4.31304 | 35011 ft | 447 kts | 190° |
| 2026-05-05 15:49 | 41.29405 | -4.31948 | 35012 ft | 446 kts | 190° |
| 2026-05-05 15:49 | 41.23236 | -4.32588 | 35005 ft | 446 kts | 191° |
| 2026-05-05 15:50 | 41.17035 | -4.33234 | 35009 ft | 445 kts | 191° |
| 2026-05-05 15:50 | 41.10891 | -4.33880 | 35013 ft | 445 kts | 191° |
| 2026-05-05 15:51 | 41.04702 | -4.34524 | 34975 ft | 445 kts | 191° |
| 2026-05-05 15:51 | 40.98522 | -4.35156 | 34984 ft | 445 kts | 191° |
| 2026-05-05 15:52 | 40.92345 | -4.35781 | 34998 ft | 445 kts | 191° |
| 2026-05-05 15:52 | 40.86206 | -4.36420 | 34998 ft | 445 kts | 192° |
| 2026-05-05 15:53 | 40.80016 | -4.37061 | 34982 ft | 445 kts | 192° |
| 2026-05-05 15:53 | 40.73846 | -4.37691 | 34995 ft | 444 kts | 192° |
| 2026-05-05 15:54 | 40.67675 | -4.38315 | 34997 ft | 444 kts | 192° |
| 2026-05-05 15:54 | 40.61537 | -4.38936 | 34994 ft | 444 kts | 192° |
| 2026-05-05 15:55 | 40.55372 | -4.39567 | 34989 ft | 444 kts | 192° |
| 2026-05-05 15:55 | 40.49209 | -4.40205 | 34989 ft | 444 kts | 192° |
| 2026-05-05 15:56 | 40.43029 | -4.40833 | 34984 ft | 444 kts | 192° |
| 2026-05-05 15:56 | 40.36902 | -4.41447 | 34947 ft | 444 kts | 193° |
| 2026-05-05 15:57 | 40.30742 | -4.42074 | 34972 ft | 443 kts | 193° |
| 2026-05-05 15:57 | 40.24586 | -4.42693 | 34978 ft | 442 kts | 193° |
| 2026-05-05 15:58 | 40.18478 | -4.43305 | 34976 ft | 442 kts | 193° |
| 2026-05-05 15:58 | 40.12343 | -4.43923 | 34967 ft | 441 kts | 193° |
| 2026-05-05 15:59 | 40.06260 | -4.44541 | 34976 ft | 440 kts | 193° |
| 2026-05-05 15:59 | 40.00141 | -4.45159 | 34979 ft | 440 kts | 193° |
| 2026-05-05 16:00 | 39.94032 | -4.45772 | 34936 ft | 440 kts | 193° |
| 2026-05-05 16:00 | 39.87963 | -4.46374 | 34972 ft | 438 kts | 193° |
| 2026-05-05 16:01 | 39.81875 | -4.46978 | 34985 ft | 437 kts | 193° |
| 2026-05-05 16:01 | 39.75845 | -4.47580 | 34991 ft | 436 kts | 193° |
| 2026-05-05 16:02 | 39.69774 | -4.48188 | 34965 ft | 435 kts | 193° |
| 2026-05-05 16:02 | 39.63740 | -4.48786 | 34988 ft | 434 kts | 193° |
| 2026-05-05 16:03 | 39.57748 | -4.49383 | 34992 ft | 433 kts | 193° |
| 2026-05-05 16:03 | 39.51732 | -4.49982 | 34993 ft | 432 kts | 193° |
| 2026-05-05 16:04 | 39.45773 | -4.50553 | 34969 ft | 431 kts | 193° |
| 2026-05-05 16:04 | 39.39778 | -4.51139 | 34985 ft | 430 kts | 193° |
| 2026-05-05 16:05 | 39.33975 | -4.51710 | 34987 ft | 430 kts | 193° |
| 2026-05-05 16:05 | 39.27981 | -4.52299 | 34987 ft | 429 kts | 193° |
| 2026-05-05 16:06 | 39.22032 | -4.52886 | 34979 ft | 428 kts | 193° |
| 2026-05-05 16:06 | 39.16096 | -4.53464 | 34993 ft | 427 kts | 193° |
| 2026-05-05 16:07 | 39.10176 | -4.54046 | 34989 ft | 426 kts | 193° |
| 2026-05-05 16:07 | 39.04296 | -4.54624 | 34990 ft | 425 kts | 193° |
| 2026-05-05 16:08 | 38.98390 | -4.55200 | 34962 ft | 425 kts | 194° |
| 2026-05-05 16:08 | 38.92501 | -4.55823 | 34977 ft | 421 kts | 196° |
| 2026-05-05 16:09 | 38.86769 | -4.56913 | 34978 ft | 417 kts | 199° |
| 2026-05-05 16:09 | 38.81055 | -4.58244 | 34982 ft | 416 kts | 199° |
| 2026-05-05 16:10 | 38.76308 | -4.59321 | 34957 ft | 417 kts | 198° |
| 2026-05-05 16:10 | 38.70572 | -4.60529 | 34966 ft | 418 kts | 198° |
| 2026-05-05 16:11 | 38.64827 | -4.61693 | 34973 ft | 418 kts | 198° |
| 2026-05-05 16:12 | 38.53377 | -4.64051 | 34941 ft | 417 kts | 197° |
| 2026-05-05 16:13 | 38.39080 | -4.67009 | 34977 ft | 417 kts | 197° |
| 2026-05-05 16:13 | 38.33359 | -4.68178 | 34976 ft | 416 kts | 197° |
| 2026-05-05 16:14 | 38.21994 | -4.70510 | 34975 ft | 416 kts | 197° |
| 2026-05-05 16:15 | 38.10564 | -4.72849 | 34974 ft | 416 kts | 197° |
| 2026-05-05 16:16 | 37.99122 | -4.75184 | 34961 ft | 415 kts | 197° |
| 2026-05-05 16:17 | 37.90559 | -4.76922 | 34957 ft | 415 kts | 197° |
| 2026-05-05 16:18 | 37.82019 | -4.78653 | 34924 ft | 416 kts | 197° |
| 2026-05-05 16:19 | 37.73431 | -4.80392 | 34684 ft | 417 kts | 197° |
| 2026-05-05 16:19 | 37.70559 | -4.80970 | 34443 ft | 417 kts | 197° |
| 2026-05-05 16:19 | 37.64888 | -4.82113 | 33742 ft | 411 kts | 197° |
| 2026-05-05 16:20 | 37.59267 | -4.83249 | 32751 ft | 404 kts | 196° |
| 2026-05-05 16:20 | 37.53787 | -4.84350 | 31790 ft | 398 kts | 196° |
| 2026-05-05 16:21 | 37.48346 | -4.85437 | 30837 ft | 393 kts | 196° |
| 2026-05-05 16:22 | 37.40308 | -4.87049 | 29392 ft | 385 kts | 196° |
| 2026-05-05 16:22 | 37.35076 | -4.88096 | 28481 ft | 379 kts | 195° |
| 2026-05-05 16:23 | 37.29892 | -4.89129 | 27619 ft | 375 kts | 195° |
| 2026-05-05 16:23 | 37.27312 | -4.89648 | 27193 ft | 374 kts | 195° |
| 2026-05-05 16:23 | 37.22210 | -4.90677 | 26369 ft | 373 kts | 195° |
| 2026-05-05 16:24 | 37.19649 | -4.91187 | 25956 ft | 372 kts | 195° |
| 2026-05-05 16:24 | 37.17099 | -4.91694 | 25543 ft | 371 kts | 195° |
| 2026-05-05 16:24 | 37.11984 | -4.92716 | 24697 ft | 370 kts | 195° |
| 2026-05-05 16:25 | 37.09464 | -4.93177 | 24153 ft | 375 kts | 189° |
| 2026-05-05 16:25 | 37.04009 | -4.93069 | 22614 ft | 396 kts | 183° |
| 2026-05-05 16:25 | 37.01252 | -4.92944 | 22157 ft | 394 kts | 182° |
| 2026-05-05 16:26 | 36.95845 | -4.92680 | 21293 ft | 388 kts | 182° |
| 2026-05-05 16:26 | 36.90479 | -4.92437 | 20328 ft | 384 kts | 182° |
| 2026-05-05 16:27 | 36.87807 | -4.92324 | 19938 ft | 379 kts | 182° |
| 2026-05-05 16:27 | 36.85186 | -4.92215 | 19540 ft | 375 kts | 182° |
| 2026-05-05 16:27 | 36.82576 | -4.92109 | 19070 ft | 373 kts | 182° |
| 2026-05-05 16:27 | 36.80007 | -4.92009 | 18598 ft | 372 kts | 182° |
| 2026-05-05 16:28 | 36.77432 | -4.91907 | 18124 ft | 370 kts | 182° |
| 2026-05-05 16:28 | 36.74861 | -4.91800 | 17643 ft | 367 kts | 182° |
| 2026-05-05 16:28 | 36.72304 | -4.91692 | 17144 ft | 365 kts | 182° |
| 2026-05-05 16:28 | 36.69776 | -4.91587 | 16692 ft | 362 kts | 182° |
| 2026-05-05 16:29 | 36.67262 | -4.91484 | 16233 ft | 360 kts | 182° |
| 2026-05-05 16:29 | 36.64767 | -4.91386 | 15747 ft | 357 kts | 182° |
| 2026-05-05 16:29 | 36.62288 | -4.91288 | 15289 ft | 354 kts | 182° |
| 2026-05-05 16:29 | 36.59855 | -4.91189 | 14773 ft | 355 kts | 182° |
| 2026-05-05 16:30 | 36.57399 | -4.91088 | 14345 ft | 352 kts | 182° |
| 2026-05-05 16:30 | 36.54956 | -4.90984 | 13975 ft | 347 kts | 181° |
| 2026-05-05 16:30 | 36.52535 | -4.90881 | 13397 ft | 348 kts | 182° |
| 2026-05-05 16:30 | 36.50125 | -4.90783 | 12934 ft | 345 kts | 182° |
| 2026-05-05 16:31 | 36.47736 | -4.90685 | 12494 ft | 342 kts | 182° |
| 2026-05-05 16:31 | 36.45400 | -4.90588 | 12071 ft | 338 kts | 182° |
| 2026-05-05 16:31 | 36.43056 | -4.90488 | 11636 ft | 336 kts | 181° |
| 2026-05-05 16:31 | 36.40766 | -4.90394 | 11236 ft | 333 kts | 182° |
| 2026-05-05 16:32 | 36.38453 | -4.90301 | 10810 ft | 331 kts | 181° |
| 2026-05-05 16:32 | 36.36160 | -4.90211 | 10402 ft | 329 kts | 184° |
| 2026-05-05 16:32 | 36.33876 | -4.90122 | 10069 ft | 325 kts | 184° |
| 2026-05-05 16:32 | 36.31795 | -4.90032 | 9912 ft | 306 kts | 182° |
| 2026-05-05 16:33 | 36.29682 | -4.89938 | 9572 ft | 300 kts | 181° |
| 2026-05-05 16:33 | 36.27600 | -4.89854 | 9203 ft | 299 kts | 181° |
| 2026-05-05 16:33 | 36.25526 | -4.89772 | 8866 ft | 297 kts | 181° |
| 2026-05-05 16:33 | 36.23477 | -4.89689 | 8477 ft | 297 kts | 180° |
| 2026-05-05 16:34 | 36.21416 | -4.89612 | 8153 ft | 294 kts | 184° |
| 2026-05-05 16:34 | 36.19436 | -4.90002 | 7554 ft | 285 kts | 205° |
| 2026-05-05 16:34 | 36.17877 | -4.91135 | 6874 ft | 282 kts | 224° |
| 2026-05-05 16:34 | 36.16679 | -4.93023 | 6237 ft | 277 kts | 246° |
| 2026-05-05 16:35 | 36.16136 | -4.95262 | 5824 ft | 270 kts | 266° |
| 2026-05-05 16:35 | 36.16063 | -4.97583 | 5481 ft | 268 kts | 271° |
| 2026-05-05 16:35 | 36.16012 | -4.99890 | 5140 ft | 264 kts | 271° |
| 2026-05-05 16:35 | 36.15963 | -5.02075 | 4843 ft | 252 kts | 272° |
| 2026-05-05 16:36 | 36.15914 | -5.04184 | 4526 ft | 241 kts | 273° |
| 2026-05-05 16:36 | 36.15868 | -5.06212 | 4235 ft | 229 kts | 273° |
| 2026-05-05 16:36 | 36.15829 | -5.08016 | 3974 ft | 217 kts | 271° |
| 2026-05-05 16:36 | 36.15791 | -5.09855 | 3707 ft | 207 kts | 270° |
| 2026-05-05 16:37 | 36.15756 | -5.11578 | 3461 ft | 195 kts | 272° |
| 2026-05-05 16:37 | 36.15723 | -5.13191 | 3250 ft | 183 kts | 270° |
| 2026-05-05 16:37 | 36.15691 | -5.14741 | 3025 ft | 178 kts | 270° |
| 2026-05-05 16:37 | 36.15661 | -5.16179 | 2792 ft | 173 kts | 269° |
| 2026-05-05 16:38 | 36.15629 | -5.17655 | 2582 ft | 169 kts | 269° |
| 2026-05-05 16:38 | 36.15601 | -5.18975 | 2396 ft | 163 kts | 269° |
| 2026-05-05 16:38 | 36.15570 | -5.20370 | 2185 ft | 150 kts | 269° |
| 2026-05-05 16:38 | 36.15543 | -5.21613 | 1996 ft | 138 kts | 269° |
| 2026-05-05 16:39 | 36.15518 | -5.22778 | 1861 ft | 133 kts | 269° |
| 2026-05-05 16:39 | 36.15493 | -5.23907 | 1690 ft | 130 kts | 269° |
| 2026-05-05 16:39 | 36.15457 | -5.25025 | 1496 ft | 130 kts | 267° |
| 2026-05-05 16:39 | 36.15404 | -5.26148 | 1317 ft | 131 kts | 266° |
| 2026-05-05 16:40 | 36.15338 | -5.27247 | 1125 ft | 129 kts | 265° |
| 2026-05-05 16:40 | 36.15322 | -5.28353 | 1004 ft | 129 kts | 270° |
| 2026-05-05 16:40 | 36.15328 | -5.29471 | 805 ft | 131 kts | 266° |
| 2026-05-05 16:40 | 36.15289 | -5.30590 | 581 ft | 129 kts | 264° |
| 2026-05-05 16:41 | 36.15223 | -5.31709 | 440 ft | 130 kts | 266° |
| 2026-05-05 16:41 | 36.15206 | -5.32803 | 226 ft | 128 kts | 268° |
| 2026-05-05 16:41 | 36.15157 | -5.33909 | 62 ft | 128 kts | 265° |
| 2026-05-05 16:41 | 36.15118 | -5.34930 | 19 ft | 99 kts | 266° |
| 2026-05-05 16:42 | 36.15100 | -5.35410 | 19 ft | 12 kts | 268° |
| 2026-05-05 16:42 | 36.15097 | -5.35519 | 19 ft | 14 kts | 268° |
| 2026-05-05 16:42 | 36.15094 | -5.35648 | 17 ft | 16 kts | 268° |
| 2026-05-05 16:42 | 36.15090 | -5.35788 | 17 ft | 16 kts | 267° |
| 2026-05-05 16:43 | 36.15050 | -5.35915 | 17 ft | 15 kts | 263° |
| 2026-05-05 16:43 | 36.15094 | -5.35887 | 16 ft | 13 kts | 88° |
| 2026-05-05 16:43 | 36.15091 | -5.35765 | 17 ft | 15 kts | 89° |
| 2026-05-05 16:43 | 36.15093 | -5.35629 | 17 ft | 16 kts | 89° |
| 2026-05-05 16:44 | 36.15096 | -5.35485 | 19 ft | 17 kts | 86° |
| 2026-05-05 16:44 | 36.15101 | -5.35332 | 20 ft | 19 kts | 88° |
| 2026-05-05 16:44 | 36.15111 | -5.35166 | 19 ft | 20 kts | 86° |
| 2026-05-05 16:44 | 36.15120 | -5.34986 | 19 ft | 22 kts | 87° |
| 2026-05-05 16:45 | 36.15124 | -5.34791 | 20 ft | 16 kts | 88° |
| 2026-05-05 16:45 | 36.15125 | -5.34770 | 18 ft | 4 kts | 88° |
| 2026-05-05 16:45 | 36.15126 | -5.34722 | 21 ft | 7 kts | 84° |
| 2026-05-05 16:45 | 36.15164 | -5.34680 | 18 ft | 9 kts | 0° |
| 2026-05-05 16:46 | 36.15226 | -5.34673 | 18 ft | 10 kts | 9° |
| 2026-05-05 16:46 | 36.15299 | -5.34675 | 18 ft | 5 kts | 356° |